Time;durP1;ratioP1;P1;durP2;ratioP2;P2;SDS_P1;SDS_P2;PMS_P1;PMS_P2;Temp;Humidity;BMP_temperature;BMP_pressure;BME280_temperature;BME280_humidity;BME280_pressure;Samples;Min_cycle;Max_cycle;Signal;HPM_P1;HPM_P2
2023/01/10 00:00:33;;;;;;;16.10;1.85;;;5.90;99.90;;;;;;5095094;28;20326;-73
2023/01/10 00:02:59;;;;;;;23.60;2.58;;;5.90;99.90;;;;;;5075629;28;20035;-73
2023/01/10 00:05:25;;;;;;;23.75;2.70;;;6.00;99.90;;;;;;5106931;28;20114;-79
2023/01/10 00:07:51;;;;;;;4.82;1.85;;;6.00;99.90;;;;;;5111782;28;20098;-73
2023/01/10 00:10:17;;;;;;;15.93;1.97;;;6.10;99.90;;;;;;5110476;28;20038;-74
2023/01/10 00:15:26;;;;;;;19.70;1.73;;;6.10;99.90;;;;;;5114932;28;20541;-74
2023/01/10 00:17:52;;;;;;;22.43;2.43;;;6.10;99.90;;;;;;5112642;28;20060;-73
2023/01/10 00:20:19;;;;;;;20.57;2.57;;;6.20;99.90;;;;;;5097666;28;20032;-74
2023/01/10 00:22:45;;;;;;;24.50;1.92;;;6.20;99.90;;;;;;5096169;28;20058;-73
2023/01/10 00:25:11;;;;;;;19.07;2.07;;;6.20;99.90;;;;;;5098498;28;20032;-81
2023/01/10 00:27:37;;;;;;;17.20;2.50;;;6.20;99.90;;;;;;5113120;28;20031;-74
2023/01/10 00:30:13;;;;;;;26.37;2.23;;;6.20;99.90;;;;;;5114782;28;20276;-74
2023/01/10 00:32:41;;;;;;;15.27;2.28;;;6.20;99.90;;;;;;5112830;28;20411;-73
2023/01/10 00:35:07;;;;;;;10.65;1.67;;;6.30;99.90;;;;;;5113199;28;20031;-73
2023/01/10 00:37:33;;;;;;;16.23;2.22;;;6.30;99.90;;;;;;5112528;28;20028;-74
2023/01/10 00:39:59;;;;;;;14.63;2.17;;;6.30;99.90;;;;;;5114331;28;20421;-73
2023/01/10 00:45:10;;;;;;;21.35;2.70;;;6.20;99.90;;;;;;5100803;28;20579;-73
2023/01/10 00:47:37;;;;;;;14.43;2.30;;;6.20;99.90;;;;;;5095788;28;20039;-73
2023/01/10 00:50:07;;;;;;;11.02;1.55;;;6.10;99.90;;;;;;5112671;28;21114;-73
2023/01/10 00:52:33;;;;;;;8.55;1.95;;;6.00;99.90;;;;;;5093855;28;20082;-73
2023/01/10 00:54:59;;;;;;;22.97;2.60;;;6.10;99.90;;;;;;5111115;28;20020;-74
2023/01/10 00:57:25;;;;;;;19.37;2.17;;;6.10;99.90;;;;;;5110731;28;20326;-73
2023/01/10 00:59:51;;;;;;;11.43;2.80;;;6.20;99.90;;;;;;5097476;28;20038;-79
2023/01/10 01:02:17;;;;;;;11.87;2.03;;;6.20;99.90;;;;;;5092210;28;20038;-74
2023/01/10 01:04:42;;;;;;;12.23;2.25;;;6.20;99.90;;;;;;5110559;28;20035;-73
2023/01/10 01:07:08;;;;;;;21.70;3.33;;;6.20;99.90;;;;;;5096544;28;20422;-79
2023/01/10 01:10:25;;;;;;;13.87;1.93;;;6.30;99.90;;;;;;5110267;28;20024;-74
2023/01/10 01:12:20;;;;;;;15.57;1.95;;;6.30;99.90;;;;;;5110062;28;20104;-81
2023/01/10 01:14:45;;;;;;;10.30;1.83;;;6.30;99.90;;;;;;5102347;28;20117;-76
2023/01/10 01:17:11;;;;;;;22.30;2.03;;;6.40;99.90;;;;;;5111543;28;20115;-73
2023/01/10 01:19:37;;;;;;;15.95;2.03;;;6.40;99.90;;;;;;5114192;28;20024;-72
2023/01/10 01:22:03;;;;;;;17.43;1.73;;;6.40;99.90;;;;;;5110280;28;20042;-73
2023/01/10 01:24:29;;;;;;;10.35;2.10;;;6.40;99.90;;;;;;5113192;28;20023;-74
2023/01/10 01:26:54;;;;;;;19.17;2.50;;;6.40;99.90;;;;;;5114223;28;20422;-73
2023/01/10 01:29:20;;;;;;;14.63;2.77;;;6.40;99.90;;;;;;5107838;28;20145;-80
2023/01/10 01:31:46;;;;;;;12.48;2.35;;;6.40;99.90;;;;;;5093397;28;20027;-73
2023/01/10 01:34:13;;;;;;;14.93;2.70;;;6.40;99.90;;;;;;5080513;28;20038;-73
2023/01/10 01:36:39;;;;;;;27.08;3.00;;;6.40;99.90;;;;;;5113598;28;20104;-73
2023/01/10 01:39:05;;;;;;;17.23;2.33;;;6.40;99.90;;;;;;5115363;28;20074;-73
2023/01/10 01:44:18;;;;;;;23.98;3.38;;;6.40;99.90;;;;;;5103246;28;20084;-73
2023/01/10 01:47:05;;;;;;;20.40;2.95;;;6.40;99.90;;;;;;5114831;28;20031;-73
2023/01/10 01:49:33;;;;;;;13.50;1.58;;;6.40;99.90;;;;;;5112728;28;20047;-73
2023/01/10 01:52:06;;;;;;;14.43;2.05;;;6.40;99.90;;;;;;5113223;28;20148;-73
2023/01/10 01:54:33;;;;;;;19.50;2.83;;;6.40;99.90;;;;;;5092694;28;20036;-75
2023/01/10 01:57:15;;;;;;;16.20;2.70;;;6.40;99.90;;;;;;5113059;28;20103;-73
2023/01/10 01:59:46;;;;;;;22.25;3.30;;;6.40;99.90;;;;;;5111197;28;20110;-80
2023/01/10 02:02:23;;;;;;;18.40;2.75;;;6.40;99.90;;;;;;5113659;28;20045;-79
2023/01/10 02:05:08;;;;;;;19.45;3.05;;;6.40;99.90;;;;;;5109832;28;20402;-73
2023/01/10 02:07:39;;;;;;;18.20;2.47;;;6.40;99.90;;;;;;5110006;28;20425;-73
2023/01/10 02:10:16;;;;;;;21.67;2.45;;;6.50;99.90;;;;;;5113740;28;20036;-73
2023/01/10 02:12:45;;;;;;;23.48;3.00;;;6.50;99.90;;;;;;5112295;28;20024;-73
2023/01/10 02:15:13;;;;;;;23.65;2.40;;;6.50;99.90;;;;;;5109395;28;20020;-73
2023/01/10 02:17:40;;;;;;;17.73;3.25;;;6.50;99.90;;;;;;5107864;28;20023;-73
2023/01/10 02:20:10;;;;;;;15.38;1.90;;;6.60;99.90;;;;;;5114215;28;20103;-79
2023/01/10 02:22:54;;;;;;;23.35;2.58;;;6.60;99.90;;;;;;5113650;28;20077;-73
2023/01/10 02:25:41;;;;;;;28.80;3.22;;;6.60;99.90;;;;;;5106972;28;20417;-81
2023/01/10 02:28:31;;;;;;;20.23;2.85;;;6.60;99.90;;;;;;5106903;28;20035;-82
2023/01/10 02:31:29;;;;;;;23.52;3.55;;;6.60;99.90;;;;;;5108817;28;20034;-73
2023/01/10 02:34:07;;;;;;;18.73;2.55;;;6.60;99.90;;;;;;5108848;28;20360;-73
2023/01/10 02:36:42;;;;;;;13.60;3.05;;;6.70;99.90;;;;;;5112402;28;20028;-73
2023/01/10 02:39:48;;;;;;;10.63;2.42;;;6.70;99.90;;;;;;5113806;28;20024;-82
2023/01/10 02:42:29;;;;;;;18.30;2.60;;;6.70;99.90;;;;;;5105148;28;20316;-74
2023/01/10 02:45:04;;;;;;;17.52;2.92;;;6.70;99.90;;;;;;5073744;28;20028;-73
2023/01/10 02:47:40;;;;;;;16.95;2.25;;;6.70;99.90;;;;;;5101649;28;20085;-73
2023/01/10 02:50:25;;;;;;;25.15;2.35;;;6.70;99.90;;;;;;5113566;28;20716;-73
2023/01/10 02:52:51;;;;;;;16.63;3.00;;;6.80;99.90;;;;;;5081285;28;20406;-73
2023/01/10 02:55:17;;;;;;;22.08;3.10;;;6.80;99.90;;;;;;5098711;28;20033;-72
2023/01/10 02:58:00;;;;;;;20.33;2.92;;;6.80;99.90;;;;;;5111222;28;20024;-73
2023/01/10 03:00:44;;;;;;;9.23;2.38;;;6.80;99.90;;;;;;5111879;28;20038;-73
2023/01/10 03:03:38;;;;;;;17.13;2.33;;;6.80;99.90;;;;;;5110597;28;20047;-73
2023/01/10 03:06:18;;;;;;;20.95;2.35;;;6.90;99.90;;;;;;5111640;28;20051;-73
2023/01/10 03:09:08;;;;;;;12.68;2.15;;;6.80;99.90;;;;;;5109756;28;20455;-73
2023/01/10 03:11:43;;;;;;;13.32;2.40;;;6.70;99.90;;;;;;5112317;28;20413;-73
2023/01/10 03:14:25;;;;;;;13.57;2.78;;;6.70;99.90;;;;;;5113299;28;20027;-73
2023/01/10 03:17:00;;;;;;;14.15;2.33;;;6.70;99.90;;;;;;5109506;28;20172;-73
2023/01/10 03:19:34;;;;;;;14.40;2.20;;;6.70;99.90;;;;;;5113247;28;20043;-73
2023/01/10 03:22:03;;;;;;;13.05;2.10;;;6.70;99.90;;;;;;5111017;28;20032;-73
2023/01/10 03:24:49;;;;;;;19.50;2.63;;;6.70;99.90;;;;;;5092344;28;20364;-73
2023/01/10 03:27:42;;;;;;;16.83;2.05;;;6.80;99.90;;;;;;5087073;28;20031;-72
2023/01/10 03:30:24;;;;;;;10.90;2.75;;;6.80;99.90;;;;;;5099129;28;20031;-80
2023/01/10 03:32:50;;;;;;;25.85;3.30;;;6.80;99.90;;;;;;5106633;28;20027;-72
2023/01/10 03:35:18;;;;;;;21.60;1.92;;;6.90;99.90;;;;;;5105670;28;20429;-82
2023/01/10 03:38:08;;;;;;;15.55;2.47;;;6.90;99.90;;;;;;5109054;28;20035;-72
2023/01/10 03:40:46;;;;;;;21.73;3.20;;;6.90;99.90;;;;;;5105278;28;20024;-72
2023/01/10 03:46:20;;;;;;;16.85;2.55;;;6.90;99.90;;;;;;5102596;28;20022;-73
2023/01/10 03:48:48;;;;;;;13.50;2.53;;;6.80;99.90;;;;;;5106898;28;20096;-72
2023/01/10 03:51:16;;;;;;;11.57;2.83;;;6.80;99.90;;;;;;5109385;28;20050;-72
2023/01/10 03:53:43;;;;;;;17.08;2.50;;;6.80;99.90;;;;;;5110534;28;20059;-72
2023/01/10 03:56:13;;;;;;;10.85;2.10;;;6.80;99.90;;;;;;5096031;28;20019;-83
2023/01/10 03:58:40;;;;;;;18.02;2.85;;;6.70;99.90;;;;;;5115879;28;20452;-72
2023/01/10 04:01:05;;;;;;;19.05;1.98;;;6.70;99.90;;;;;;5114022;28;20031;-78
2023/01/10 04:03:31;;;;;;;13.23;2.83;;;6.70;99.90;;;;;;5101988;28;20024;-82
2023/01/10 04:05:57;;;;;;;12.90;2.20;;;6.60;99.90;;;;;;5110106;28;20022;-72
2023/01/10 04:08:23;;;;;;;24.15;2.25;;;6.60;99.90;;;;;;5116664;28;20042;-80
2023/01/10 04:10:49;;;;;;;12.57;2.63;;;6.60;99.90;;;;;;5097540;28;20031;-72
2023/01/10 04:13:15;;;;;;;14.37;2.17;;;6.70;99.90;;;;;;5117002;28;20030;-73
2023/01/10 04:15:41;;;;;;;16.63;2.17;;;6.70;99.90;;;;;;5098873;28;20024;-72
2023/01/10 04:18:07;;;;;;;25.07;3.17;;;6.70;99.90;;;;;;5112909;28;20538;-81
2023/01/10 04:20:33;;;;;;;18.13;3.03;;;6.60;99.90;;;;;;5114792;28;20031;-73
2023/01/10 04:22:59;;;;;;;14.87;2.03;;;6.60;99.90;;;;;;5091943;28;20115;-73
2023/01/10 04:25:25;;;;;;;13.17;2.50;;;6.60;99.90;;;;;;5087101;28;20034;-73
2023/01/10 04:27:51;;;;;;;25.00;3.17;;;6.60;99.90;;;;;;5109398;28;20028;-73
2023/01/10 04:30:18;;;;;;;18.70;3.05;;;6.70;99.90;;;;;;5116431;28;20337;-73
2023/01/10 04:32:45;;;;;;;17.75;2.78;;;6.60;99.90;;;;;;5098179;28;20028;-73
2023/01/10 04:35:11;;;;;;;21.65;3.17;;;6.70;99.90;;;;;;5089099;28;20413;-83
2023/01/10 04:37:37;;;;;;;19.77;4.55;;;6.60;99.90;;;;;;5095632;28;20035;-72
2023/01/10 04:40:03;;;;;;;27.40;4.73;;;6.70;99.90;;;;;;5106539;28;20023;-72
2023/01/10 04:42:29;;;;;;;14.13;2.38;;;6.70;99.90;;;;;;5106720;28;20089;-73
2023/01/10 04:44:55;;;;;;;23.93;4.17;;;6.70;99.90;;;;;;5102911;28;20678;-72
2023/01/10 04:47:20;;;;;;;26.17;4.00;;;6.70;99.90;;;;;;5103404;28;20058;-72
2023/01/10 04:49:46;;;;;;;21.13;3.10;;;6.70;99.90;;;;;;5111626;28;20126;-72
2023/01/10 04:52:12;;;;;;;19.27;2.70;;;6.70;99.90;;;;;;5096717;28;20085;-74
2023/01/10 04:54:38;;;;;;;22.43;3.33;;;6.60;99.90;;;;;;5101168;28;20107;-72
2023/01/10 04:57:05;;;;;;;26.63;3.70;;;6.50;99.90;;;;;;5115429;28;20020;-72
2023/01/10 04:59:31;;;;;;;;;;;6.40;99.90;;;;;;5113616;28;20023;-72
2023/01/10 05:01:57;;;;;;;13.13;2.60;;;6.40;99.90;;;;;;5103050;28;20318;-73
2023/01/10 05:04:23;;;;;;;14.60;3.90;;;6.40;99.90;;;;;;5085224;28;20027;-73
2023/01/10 05:06:49;;;;;;;17.50;2.40;;;6.30;99.90;;;;;;5087998;28;20036;-73
2023/01/10 05:09:15;;;;;;;14.70;2.20;;;6.20;99.90;;;;;;5114812;28;20028;-73
2023/01/10 05:11:41;;;;;;;16.30;3.30;;;6.00;99.90;;;;;;5111927;28;20037;-73
2023/01/10 05:14:07;;;;;;;17.85;2.72;;;5.90;99.90;;;;;;5099225;28;20269;-79
2023/01/10 05:16:34;;;;;;;23.47;2.83;;;5.80;99.90;;;;;;5111204;28;20148;-72
2023/01/10 05:18:59;;;;;;;16.55;2.67;;;5.70;99.90;;;;;;5114685;28;20252;-73
2023/01/10 05:21:25;;;;;;;25.53;4.00;;;5.70;99.90;;;;;;5109383;28;21290;-72
2023/01/10 05:23:51;;;;;;;37.55;3.85;;;5.70;99.90;;;;;;5094693;28;20035;-72
2023/01/10 05:26:20;;;;;;;15.23;2.43;;;5.70;99.90;;;;;;5108290;28;20019;-73
2023/01/10 05:28:46;;;;;;;22.50;3.00;;;5.80;99.90;;;;;;5113584;28;20023;-73
2023/01/10 05:31:15;;;;;;;24.65;4.13;;;5.90;99.90;;;;;;5114613;28;20024;-72
2023/01/10 05:33:49;;;;;;;19.90;2.92;;;6.00;99.90;;;;;;5112004;28;20020;-73
2023/01/10 05:36:16;;;;;;;15.55;2.88;;;6.10;99.90;;;;;;5107235;28;20028;-73
2023/01/10 05:38:42;;;;;;;24.38;2.80;;;6.10;99.90;;;;;;5111175;28;20055;-72
2023/01/10 05:41:08;;;;;;;27.70;3.10;;;6.10;99.90;;;;;;5108485;28;20055;-79
2023/01/10 05:43:34;;;;;;;19.73;3.77;;;6.10;99.90;;;;;;5110980;28;20019;-72
2023/01/10 05:46:00;;;;;;;24.75;3.17;;;6.20;99.90;;;;;;5111439;28;20012;-73
2023/01/10 05:48:26;;;;;;;26.55;3.30;;;6.20;99.90;;;;;;5111190;28;20042;-73
2023/01/10 05:50:52;;;;;;;15.88;2.40;;;6.20;99.90;;;;;;5113656;28;20023;-73
2023/01/10 05:53:19;;;;;;;23.97;3.17;;;6.30;99.90;;;;;;5113966;28;20031;-73
2023/01/10 05:55:56;;;;;;;27.60;3.05;;;6.30;99.90;;;;;;5092531;28;20417;-73
2023/01/10 05:58:22;;;;;;;;;;;6.30;99.90;;;;;;5113804;28;20126;-73
2023/01/10 06:00:48;;;;;;;13.45;3.42;;;6.30;99.90;;;;;;5111911;28;19995;-72
2023/01/10 06:03:14;;;;;;;21.20;2.55;;;6.20;99.90;;;;;;5107117;28;20054;-74
2023/01/10 06:05:40;;;;;;;21.70;2.73;;;6.20;99.90;;;;;;5112436;28;20042;-72
2023/01/10 06:08:06;;;;;;;16.90;3.60;;;6.10;99.90;;;;;;5111445;28;20267;-77
2023/01/10 06:10:31;;;;;;;21.43;2.97;;;6.10;99.90;;;;;;5112529;28;20035;-73
2023/01/10 06:12:57;;;;;;;33.80;3.17;;;6.00;99.90;;;;;;5101332;28;20035;-72
2023/01/10 06:15:23;;;;;;;19.80;2.93;;;6.00;99.90;;;;;;5112399;28;20026;-72
2023/01/10 06:17:49;;;;;;;24.57;2.87;;;6.00;99.90;;;;;;5111875;28;20096;-73
2023/01/10 06:20:15;;;;;;;20.63;3.47;;;6.00;99.90;;;;;;5114668;28;20326;-72
2023/01/10 06:22:42;;;;;;;17.77;3.40;;;6.00;99.90;;;;;;5097020;28;20034;-72
2023/01/10 06:25:09;;;;;;;;;;;6.00;99.90;;;;;;5111267;28;20164;-80
2023/01/10 06:27:35;;;;;;;15.10;2.83;;;6.00;99.90;;;;;;5113950;28;19907;-73
2023/01/10 06:30:01;;;;;;;19.97;3.40;;;6.00;99.90;;;;;;5110438;28;20034;-77
2023/01/10 06:32:27;;;;;;;18.37;3.10;;;6.00;99.90;;;;;;5095915;28;20088;-73
2023/01/10 06:34:53;;;;;;;19.20;3.35;;;6.00;99.90;;;;;;5112035;28;20091;-74
2023/01/10 06:37:19;;;;;;;23.60;3.17;;;6.00;99.90;;;;;;5110311;28;20107;-73
2023/01/10 06:39:45;;;;;;;20.73;3.07;;;6.00;99.90;;;;;;5107415;28;20036;-73
2023/01/10 06:42:11;;;;;;;42.22;3.45;;;6.00;99.90;;;;;;5110774;28;20481;-80
2023/01/10 06:44:37;;;;;;;34.72;3.72;;;6.00;99.90;;;;;;5108625;28;20115;-75
2023/01/10 06:47:03;;;;;;;42.43;8.67;;;6.00;99.90;;;;;;5111007;28;20098;-73
2023/01/10 06:49:29;;;;;;;24.60;7.55;;;5.90;99.90;;;;;;5111353;28;20040;-73
2023/01/10 06:51:55;;;;;;;41.40;4.47;;;6.00;99.90;;;;;;5109409;28;20020;-72
2023/01/10 06:54:21;;;;;;;19.97;5.87;;;6.00;99.90;;;;;;5109278;28;20028;-73
2023/01/10 06:56:48;;;;;;;27.87;4.20;;;6.00;99.90;;;;;;5093717;28;20100;-73
2023/01/10 06:59:14;;;;;;;28.77;5.40;;;6.00;99.90;;;;;;5079595;28;20028;-73
2023/01/10 07:01:40;;;;;;;25.55;5.57;;;6.00;99.90;;;;;;5094798;28;20077;-73
2023/01/10 07:04:05;;;;;;;23.50;9.40;;;6.00;99.90;;;;;;5107366;28;20100;-76
2023/01/10 07:06:36;;;;;;;22.63;5.20;;;6.00;99.90;;;;;;5093915;28;20329;-73
2023/01/10 07:09:02;;;;;;;28.55;6.20;;;6.00;99.90;;;;;;5110194;28;20027;-73
2023/01/10 07:11:28;;;;;;;40.60;10.88;;;6.10;99.90;;;;;;5099022;28;20038;-81
2023/01/10 07:13:54;;;;;;;32.80;5.63;;;6.10;99.90;;;;;;5107913;28;20032;-73
2023/01/10 07:16:20;;;;;;;13.90;5.50;;;6.10;99.90;;;;;;5106344;28;20028;-73
2023/01/10 07:18:46;;;;;;;29.60;5.72;;;6.10;99.90;;;;;;5089030;28;20042;-73
2023/01/10 07:21:12;;;;;;;29.17;3.90;;;6.10;99.90;;;;;;5107380;28;20067;-82
2023/01/10 07:23:39;;;;;;;25.85;4.07;;;6.10;99.90;;;;;;5099311;28;20115;-73
2023/01/10 07:26:08;;;;;;;27.63;4.50;;;6.10;99.90;;;;;;5116249;28;20485;-74
2023/01/10 07:28:34;;;;;;;22.25;3.65;;;6.20;99.90;;;;;;5113325;28;20024;-72
2023/01/10 07:31:01;;;;;;;23.93;3.57;;;6.20;99.90;;;;;;5114360;28;20019;-73
2023/01/10 07:33:28;;;;;;;24.30;4.60;;;6.20;99.90;;;;;;5102797;28;20291;-72
2023/01/10 07:35:54;;;;;;;24.38;5.00;;;6.20;99.90;;;;;;5115606;28;20027;-73
2023/01/10 07:38:20;;;;;;;31.52;3.50;;;6.20;99.90;;;;;;5114594;28;20026;-74
2023/01/10 07:40:46;;;;;;;22.88;3.90;;;6.20;99.90;;;;;;5115970;28;20031;-73
2023/01/10 07:43:12;;;;;;;15.90;3.67;;;6.20;99.90;;;;;;5115408;28;20043;-81
2023/01/10 07:45:38;;;;;;;26.00;5.00;;;6.20;99.90;;;;;;5117457;28;20024;-73
2023/01/10 07:48:04;;;;;;;32.60;7.10;;;6.20;99.90;;;;;;5097338;28;20038;-73
2023/01/10 07:50:33;;;;;;;26.40;3.30;;;6.20;99.90;;;;;;5115565;28;20049;-73
2023/01/10 07:53:00;;;;;;;15.70;4.53;;;6.20;99.90;;;;;;5097893;28;20035;-73
2023/01/10 07:55:27;;;;;;;26.90;5.57;;;6.20;99.90;;;;;;5114283;28;20016;-73
2023/01/10 07:57:53;;;;;;;;;;;6.30;99.90;;;;;;5112814;28;20023;-72
2023/01/10 08:00:19;;;;;;;26.25;2.97;;;6.20;99.90;;;;;;5112824;28;19912;-73
2023/01/10 08:02:46;;;;;;;27.98;4.80;;;6.20;99.90;;;;;;5093310;28;20449;-72
2023/01/10 08:05:13;;;;;;;26.23;5.53;;;6.20;99.90;;;;;;5111903;28;20345;-81
2023/01/10 08:07:39;;;;;;;38.10;5.15;;;6.30;99.90;;;;;;5095079;28;20036;-73
2023/01/10 08:10:06;;;;;;;36.60;6.07;;;6.30;99.90;;;;;;5112198;28;20020;-73
2023/01/10 08:12:32;;;;;;;39.80;10.95;;;6.30;99.90;;;;;;5111309;28;20024;-73
2023/01/10 08:14:58;;;;;;;37.90;4.80;;;6.40;99.90;;;;;;5094635;28;20024;-72
2023/01/10 08:17:24;;;;;;;39.63;7.47;;;6.40;99.90;;;;;;5113159;28;20030;-73
2023/01/10 08:19:50;;;;;;;29.40;6.85;;;6.40;99.90;;;;;;5113836;28;20114;-72
2023/01/10 08:22:16;;;;;;;38.23;4.27;;;6.40;99.90;;;;;;5095612;28;20114;-72
2023/01/10 08:24:42;;;;;;;44.27;4.70;;;6.40;99.90;;;;;;5109943;28;20460;-73
2023/01/10 08:27:08;;;;;;;51.67;7.60;;;6.40;99.90;;;;;;5110882;28;20088;-82
2023/01/10 08:29:34;;;;;;;35.63;5.23;;;6.40;99.90;;;;;;5111725;28;20024;-73
2023/01/10 08:31:59;;;;;;;30.80;7.17;;;6.40;99.90;;;;;;5114735;28;20024;-72
2023/01/10 08:34:25;;;;;;;41.43;11.37;;;6.30;99.90;;;;;;5081538;28;20024;-73
2023/01/10 08:36:52;;;;;;;33.50;4.33;;;6.30;99.90;;;;;;5101503;28;20016;-72
2023/01/10 08:39:21;;;;;;;17.30;3.97;;;6.30;99.90;;;;;;5108670;28;20028;-72
2023/01/10 08:41:48;;;;;;;23.73;3.80;;;6.30;99.90;;;;;;5109913;28;20023;-73
2023/01/10 08:44:14;;;;;;;23.15;4.70;;;6.20;99.90;;;;;;5112870;28;20032;-73
2023/01/10 08:46:41;;;;;;;25.42;4.88;;;6.20;99.90;;;;;;5109419;28;20036;-73
2023/01/10 08:49:07;;;;;;;;;;;6.10;99.90;;;;;;5090425;28;20072;-81
2023/01/10 08:51:33;;;;;;;25.50;3.80;;;6.10;99.90;;;;;;5090989;28;19943;-75
2023/01/10 08:53:59;;;;;;;20.80;3.03;;;6.10;99.90;;;;;;5089359;28;20152;-73
2023/01/10 08:56:25;;;;;;;16.57;3.33;;;6.10;99.90;;;;;;5088784;28;20032;-82
2023/01/10 08:58:50;;;;;;;25.53;5.20;;;6.10;99.90;;;;;;5088803;28;20020;-73
2023/01/10 09:01:16;;;;;;;24.43;4.97;;;6.10;99.90;;;;;;5089039;28;20029;-81
2023/01/10 09:03:42;;;;;;;36.63;4.67;;;6.10;99.90;;;;;;5085044;28;20081;-73
2023/01/10 09:06:08;;;;;;;34.03;5.27;;;6.10;99.90;;;;;;5092866;28;20118;-81
2023/01/10 09:08:35;;;;;;;25.00;4.20;;;6.00;99.90;;;;;;5088777;28;20021;-73
2023/01/10 09:11:01;;;;;;;14.75;3.58;;;6.00;99.90;;;;;;5087188;28;20036;-73
2023/01/10 09:13:28;;;;;;;27.83;4.45;;;6.00;99.90;;;;;;5088996;28;20042;-73
2023/01/10 09:15:55;;;;;;;20.30;4.50;;;6.00;99.90;;;;;;5085564;28;20422;-73
2023/01/10 09:18:21;;;;;;;;;;;6.00;99.90;;;;;;5090248;28;20024;-73
2023/01/10 09:20:48;;;;;;;23.60;4.55;;;6.00;99.90;;;;;;5091313;28;20298;-72
2023/01/10 09:23:17;;;;;;;26.98;4.63;;;6.00;99.90;;;;;;5093897;28;20043;-74
2023/01/10 09:25:45;;;;;;;26.38;4.85;;;5.90;99.90;;;;;;5090649;28;20027;-73
2023/01/10 09:28:11;;;;;;;21.05;4.60;;;5.90;99.90;;;;;;5087347;28;20442;-82
2023/01/10 09:30:37;;;;;;;19.40;3.97;;;5.90;99.90;;;;;;5088601;28;20037;-73
2023/01/10 09:33:04;;;;;;;31.42;5.30;;;5.90;99.90;;;;;;5089161;28;20671;-73
2023/01/10 09:35:31;;;;;;;28.10;4.30;;;5.90;99.90;;;;;;5075207;28;20020;-74
2023/01/10 09:37:57;;;;;;;;;;;5.90;99.90;;;;;;5089088;28;20024;-73
2023/01/10 09:40:36;;;;;;;;;;;5.90;99.90;;;;;;5082372;28;20019;-73
2023/01/10 09:43:18;;;;;;;11.43;3.08;;;6.00;99.90;;;;;;5085172;28;19916;-74
2023/01/10 09:45:58;;;;;;;26.42;4.63;;;6.00;99.90;;;;;;5086836;28;20355;-73
2023/01/10 09:48:55;;;;;;;24.20;4.60;;;6.00;99.90;;;;;;5091905;28;20046;-73
2023/01/10 09:51:47;;;;;;;16.33;4.53;;;6.00;99.90;;;;;;5089463;28;20042;-73
2023/01/10 09:54:39;;;;;;;22.65;5.00;;;6.00;99.90;;;;;;5086871;28;20024;-73
2023/01/10 09:57:10;;;;;;;29.38;4.32;;;6.10;99.90;;;;;;5085470;28;20103;-74
2023/01/10 09:59:40;;;;;;;31.23;5.80;;;6.00;99.90;;;;;;5089627;28;20028;-73
2023/01/10 10:02:38;;;;;;;30.55;5.13;;;6.00;99.90;;;;;;5086537;28;20017;-77
2023/01/10 10:05:20;;;;;;;25.73;6.05;;;6.00;99.90;;;;;;5104657;28;20124;-73
2023/01/10 10:07:53;;;;;;;22.80;4.35;;;6.10;99.90;;;;;;5089761;28;20418;-73
2023/01/10 10:10:47;;;;;;;20.55;4.72;;;6.00;99.90;;;;;;5085042;28;20063;-73
2023/01/10 10:13:29;;;;;;;30.52;9.77;;;6.00;99.90;;;;;;5073744;28;20032;-75
2023/01/10 10:16:16;;;;;;;23.73;6.63;;;6.10;99.90;;;;;;5086661;28;20023;-73
2023/01/10 10:18:53;;;;;;;34.20;6.68;;;6.10;99.90;;;;;;5088395;28;20074;-73
2023/01/10 10:21:24;;;;;;;29.60;5.90;;;6.10;99.90;;;;;;5087939;28;20467;-73
2023/01/10 10:24:16;;;;;;;22.35;5.38;;;6.10;99.90;;;;;;5088896;28;20322;-73
2023/01/10 10:26:58;;;;;;;29.33;4.72;;;6.10;99.90;;;;;;5087781;28;20426;-74
2023/01/10 10:29:39;;;;;;;24.10;5.93;;;6.10;99.90;;;;;;5087523;28;20024;-73
2023/01/10 10:32:14;;;;;;;22.10;4.50;;;6.10;99.90;;;;;;5086506;28;20022;-80
2023/01/10 10:34:53;;;;;;;29.15;5.95;;;6.10;99.90;;;;;;5087919;28;20355;-81
2023/01/10 10:37:35;;;;;;;28.35;5.55;;;6.10;99.90;;;;;;5085405;28;20111;-73
2023/01/10 10:40:12;;;;;;;27.48;6.80;;;6.00;99.90;;;;;;5068496;28;20481;-81
2023/01/10 10:42:42;;;;;;;29.70;7.13;;;6.10;99.90;;;;;;5084268;28;20028;-74
2023/01/10 10:45:38;;;;;;;26.48;5.63;;;6.00;99.90;;;;;;5087223;28;20035;-82
2023/01/10 10:48:27;;;;;;;31.65;5.55;;;6.00;99.90;;;;;;5091045;28;20044;-73
2023/01/10 10:50:57;;;;;;;28.15;5.40;;;6.00;99.90;;;;;;5093907;28;20646;-73
2023/01/10 10:53:23;;;;;;;24.77;5.47;;;6.00;99.90;;;;;;5094080;28;20348;-73
2023/01/10 10:55:49;;;;;;;26.70;3.85;;;6.00;99.90;;;;;;5110546;28;20034;-73
2023/01/10 10:58:17;;;;;;;24.33;4.47;;;6.00;99.90;;;;;;5096070;28;20073;-82
2023/01/10 11:00:43;;;;;;;16.13;3.50;;;6.00;99.90;;;;;;5109546;28;20036;-73
2023/01/10 11:03:43;;;;;;;26.15;5.55;;;6.00;99.90;;;;;;5113270;28;20118;-85
2023/01/10 11:06:10;;;;;;;24.67;5.60;;;6.00;99.90;;;;;;5113014;28;20104;-82
2023/01/10 11:08:41;;;;;;;27.20;5.50;;;6.10;99.90;;;;;;5112244;28;20023;-74
2023/01/10 11:11:26;;;;;;;25.88;4.68;;;6.00;99.90;;;;;;5104308;28;20501;-80
2023/01/10 11:13:57;;;;;;;20.97;4.10;;;6.00;99.90;;;;;;5106933;28;20028;-72
2023/01/10 11:16:40;;;;;;;30.33;5.47;;;6.10;99.90;;;;;;5105080;28;20316;-73
2023/01/10 11:19:13;;;;;;;21.80;5.20;;;6.10;99.90;;;;;;5106170;28;20032;-78
2023/01/10 11:21:40;;;;;;;24.70;4.55;;;6.10;99.90;;;;;;5103045;28;20028;-74
2023/01/10 11:24:26;;;;;;;19.15;4.55;;;6.10;99.90;;;;;;5110092;28;20032;-75
2023/01/10 11:26:52;;;;;;;21.67;3.58;;;6.10;99.90;;;;;;5102945;28;20441;-73
2023/01/10 11:29:24;;;;;;;33.67;4.15;;;6.00;99.90;;;;;;5091695;28;20024;-82
2023/01/10 11:31:52;;;;;;;38.78;8.85;;;6.10;99.90;;;;;;5095056;28;20108;-74
2023/01/10 11:34:32;;;;;;;20.80;3.45;;;6.10;99.90;;;;;;5111521;28;20016;-73
2023/01/10 11:37:16;;;;;;;13.73;2.90;;;6.10;99.90;;;;;;5110716;28;20031;-73
2023/01/10 11:39:43;;;;;;;22.30;4.25;;;6.10;99.90;;;;;;5092144;28;20028;-73
2023/01/10 11:42:38;;;;;;;25.85;8.27;;;6.20;99.90;;;;;;5112389;28;20016;-82
2023/01/10 11:45:19;;;;;;;35.63;8.23;;;6.20;99.90;;;;;;5030214;28;20030;-73
2023/01/10 11:48:07;;;;;;;27.27;3.40;;;6.20;99.90;;;;;;5029350;28;20427;-72
2023/01/10 11:50:40;;;;;;;16.00;3.28;;;6.30;99.90;;;;;;5018478;28;20038;-72
2023/01/10 11:53:25;;;;;;;19.05;3.55;;;6.30;99.90;;;;;;5030758;28;20025;-80
2023/01/10 11:55:51;;;;;;;16.63;2.90;;;6.20;99.90;;;;;;5011000;28;20112;-72
2023/01/10 11:58:17;;;;;;;19.05;3.53;;;6.20;99.90;;;;;;5018561;28;20155;-72
2023/01/10 12:00:46;;;;;;;21.20;2.83;;;6.30;99.90;;;;;;5029223;28;20037;-72
2023/01/10 12:03:16;;;;;;;17.33;3.95;;;6.30;99.90;;;;;;5030938;28;20053;-82
2023/01/10 12:05:53;;;;;;;12.52;2.75;;;6.40;99.90;;;;;;5029388;28;20499;-77
2023/01/10 12:08:23;;;;;;;;;;;6.40;99.90;;;;;;5029976;28;20379;-72
2023/01/10 12:11:01;;;;;;;16.80;2.97;;;6.40;99.90;;;;;;5016078;28;19962;-72
2023/01/10 12:13:30;;;;;;;21.75;4.10;;;6.40;99.90;;;;;;5032688;28;20029;-72
2023/01/10 12:16:26;;;;;;;22.15;6.22;;;6.40;99.90;;;;;;5034006;28;20041;-75
2023/01/10 12:18:58;;;;;;;18.60;3.42;;;6.50;99.90;;;;;;5031725;28;20095;-72
2023/01/10 12:21:37;;;;;;;14.63;3.00;;;6.50;99.90;;;;;;5069908;28;20478;-86
2023/01/10 12:24:24;;;;;;;29.08;3.33;;;6.50;99.90;;;;;;5094880;28;20411;-72
2023/01/10 12:26:52;;;;;;;23.73;3.30;;;6.40;99.90;;;;;;5101495;28;20025;-72
2023/01/10 12:29:30;;;;;;;25.90;5.97;;;6.40;99.90;;;;;;5090261;28;20058;-72
2023/01/10 12:31:58;;;;;;;22.65;3.10;;;6.50;99.90;;;;;;5112251;28;20120;-72
2023/01/10 12:34:48;;;;;;;14.90;3.33;;;6.50;99.90;;;;;;5106058;28;20102;-72
2023/01/10 12:37:38;;;;;;;17.92;3.55;;;6.50;99.90;;;;;;5111375;28;20020;-72
2023/01/10 12:40:35;;;;;;;20.27;3.67;;;6.50;99.90;;;;;;5102455;28;20359;-72
2023/01/10 12:46:21;;;;;;;27.58;4.25;;;6.50;99.90;;;;;;5104786;28;20031;-72
2023/01/10 12:49:26;;;;;;;16.10;2.60;;;6.50;99.90;;;;;;5100581;28;20039;-82
2023/01/10 12:51:57;;;;;;;27.92;3.00;;;6.40;99.90;;;;;;5106554;28;20433;-72
2023/01/10 12:54:27;;;;;;;15.88;3.58;;;6.50;99.90;;;;;;5108649;28;20024;-72
2023/01/10 12:56:54;;;;;;;14.70;2.97;;;6.50;99.90;;;;;;5115918;28;20685;-72
2023/01/10 12:59:38;;;;;;;29.17;3.20;;;6.60;99.90;;;;;;5104639;28;20068;-72
2023/01/10 13:02:24;;;;;;;17.20;3.72;;;6.60;99.90;;;;;;5080237;28;20019;-72
2023/01/10 13:04:58;;;;;;;22.00;2.67;;;6.60;99.90;;;;;;5096769;28;20454;-73
2023/01/10 13:07:33;;;;;;;20.20;3.80;;;6.60;99.90;;;;;;5114616;28;20104;-72
2023/01/10 13:10:02;;;;;;;17.15;4.82;;;6.60;99.90;;;;;;5108120;28;20016;-72
2023/01/10 13:12:39;;;;;;;12.55;3.55;;;6.60;99.90;;;;;;5111392;28;20425;-74
2023/01/10 13:15:31;;;;;;;24.95;3.80;;;6.70;99.90;;;;;;5108850;28;20323;-73
2023/01/10 13:18:04;;;;;;;18.95;3.50;;;6.70;99.90;;;;;;5110864;28;20019;-72
2023/01/10 13:20:41;;;;;;;21.42;6.80;;;6.70;99.90;;;;;;5112637;28;20027;-74
2023/01/10 13:23:28;;;;;;;;;;;6.70;99.90;;;;;;5111860;28;20034;-84
2023/01/10 13:26:04;;;;;;;19.83;3.70;;;6.70;99.90;;;;;;5095613;28;19915;-73